sensor_id;sensor_type;location;lat;lon;timestamp;pressure;altitude;pressure_sealevel;temperature;humidity
71970;BME280;59838;52.152;5.436;2023-04-27T00:00:59;102280.13;;;1.08;97.09
71970;BME280;59838;52.152;5.436;2023-04-27T00:03:25;102277.75;;;1.05;97.53
71970;BME280;59838;52.152;5.436;2023-04-27T00:05:52;102284.69;;;1.03;97.45
71970;BME280;59838;52.152;5.436;2023-04-27T00:08:19;102285.69;;;1.01;98.34
71970;BME280;59838;52.152;5.436;2023-04-27T00:10:46;102282.28;;;1.00;98.30
71970;BME280;59838;52.152;5.436;2023-04-27T00:13:12;102290.13;;;0.97;98.36
71970;BME280;59838;52.152;5.436;2023-04-27T00:15:39;102288.75;;;0.91;98.24
71970;BME280;59838;52.152;5.436;2023-04-27T00:18:06;102287.34;;;0.86;98.21
71970;BME280;59838;52.152;5.436;2023-04-27T00:20:32;102288.41;;;0.82;97.92
71970;BME280;59838;52.152;5.436;2023-04-27T00:22:59;102283.47;;;0.79;98.12
71970;BME280;59838;52.152;5.436;2023-04-27T00:25:25;102286.91;;;0.78;97.53
71970;BME280;59838;52.152;5.436;2023-04-27T00:27:52;102291.28;;;0.76;97.59
71970;BME280;59838;52.152;5.436;2023-04-27T00:30:18;102288.09;;;0.72;97.63
71970;BME280;59838;52.152;5.436;2023-04-27T00:32:45;102282.22;;;0.70;98.03
71970;BME280;59838;52.152;5.436;2023-04-27T00:35:11;102280.72;;;0.66;97.72
71970;BME280;59838;52.152;5.436;2023-04-27T00:37:38;102283.44;;;0.63;98.19
71970;BME280;59838;52.152;5.436;2023-04-27T00:40:05;102284.53;;;0.59;98.66
71970;BME280;59838;52.152;5.436;2023-04-27T00:42:34;102273.53;;;0.57;98.51
71970;BME280;59838;52.152;5.436;2023-04-27T00:45:01;102277.09;;;0.54;98.44
71970;BME280;59838;52.152;5.436;2023-04-27T00:47:28;102284.84;;;0.52;98.86
71970;BME280;59838;52.152;5.436;2023-04-27T00:49:55;102287.56;;;0.49;98.69
71970;BME280;59838;52.152;5.436;2023-04-27T00:52:22;102292.75;;;0.48;98.89
71970;BME280;59838;52.152;5.436;2023-04-27T00:54:49;102294.50;;;0.47;99.37
71970;BME280;59838;52.152;5.436;2023-04-27T00:57:17;102291.88;;;0.49;99.44
71970;BME280;59838;52.152;5.436;2023-04-27T00:59:44;102293.66;;;0.47;99.73
71970;BME280;59838;52.152;5.436;2023-04-27T01:02:11;102291.38;;;0.42;99.62
71970;BME280;59838;52.152;5.436;2023-04-27T01:04:39;102293.31;;;0.37;100.00
71970;BME280;59838;52.152;5.436;2023-04-27T01:07:09;102283.44;;;0.31;99.36
71970;BME280;59838;52.152;5.436;2023-04-27T01:09:35;102278.63;;;0.25;99.42
71970;BME280;59838;52.152;5.436;2023-04-27T01:12:02;102274.63;;;0.19;99.31
71970;BME280;59838;52.152;5.436;2023-04-27T01:14:29;102283.31;;;0.16;99.33
71970;BME280;59838;52.152;5.436;2023-04-27T01:16:55;102267.22;;;0.14;99.77
71970;BME280;59838;52.152;5.436;2023-04-27T01:19:22;102269.84;;;0.13;99.83
71970;BME280;59838;52.152;5.436;2023-04-27T01:21:48;102272.47;;;0.11;100.00
71970;BME280;59838;52.152;5.436;2023-04-27T01:24:15;102273.31;;;0.12;100.00
71970;BME280;59838;52.152;5.436;2023-04-27T01:26:41;102284.34;;;0.12;100.00
71970;BME280;59838;52.152;5.436;2023-04-27T01:29:08;102283.53;;;0.12;100.00
71970;BME280;59838;52.152;5.436;2023-04-27T01:31:34;102285.25;;;0.11;100.00
71970;BME280;59838;52.152;5.436;2023-04-27T01:34:01;102293.75;;;0.12;100.00
71970;BME280;59838;52.152;5.436;2023-04-27T01:36:28;102293.84;;;0.10;100.00
71970;BME280;59838;52.152;5.436;2023-04-27T01:38:54;102283.03;;;0.05;100.00
71970;BME280;59838;52.152;5.436;2023-04-27T01:41:20;102278.22;;;-0.01;100.00
71970;BME280;59838;52.152;5.436;2023-04-27T01:43:47;102277.56;;;-0.05;100.00
71970;BME280;59838;52.152;5.436;2023-04-27T01:46:13;102277.78;;;-0.09;100.00
71970;BME280;59838;52.152;5.436;2023-04-27T01:48:41;102267.81;;;-0.14;100.00
71970;BME280;59838;52.152;5.436;2023-04-27T01:51:07;102261.03;;;-0.15;100.00
71970;BME280;59838;52.152;5.436;2023-04-27T01:53:34;102256.91;;;-0.17;100.00
71970;BME280;59838;52.152;5.436;2023-04-27T01:56:00;102259.53;;;-0.19;100.00
71970;BME280;59838;52.152;5.436;2023-04-27T01:58:27;102264.00;;;-0.23;100.00
71970;BME280;59838;52.152;5.436;2023-04-27T02:00:53;102263.22;;;-0.25;100.00
71970;BME280;59838;52.152;5.436;2023-04-27T02:03:20;102260.81;;;-0.28;100.00
71970;BME280;59838;52.152;5.436;2023-04-27T02:05:47;102269.41;;;-0.29;100.00
71970;BME280;59838;52.152;5.436;2023-04-27T02:08:14;102271.50;;;-0.37;100.00
71970;BME280;59838;52.152;5.436;2023-04-27T02:10:40;102269.31;;;-0.45;100.00
71970;BME280;59838;52.152;5.436;2023-04-27T02:13:07;102265.94;;;-0.45;100.00
71970;BME280;59838;52.152;5.436;2023-04-27T02:15:34;102266.84;;;-0.46;100.00
71970;BME280;59838;52.152;5.436;2023-04-27T02:18:02;102268.56;;;-0.47;100.00
71970;BME280;59838;52.152;5.436;2023-04-27T02:20:30;102271.13;;;-0.47;100.00
71970;BME280;59838;52.152;5.436;2023-04-27T02:22:56;102272.84;;;-0.47;100.00
71970;BME280;59838;52.152;5.436;2023-04-27T02:25:23;102265.25;;;-0.49;100.00
71970;BME280;59838;52.152;5.436;2023-04-27T02:27:50;102265.41;;;-0.52;100.00
71970;BME280;59838;52.152;5.436;2023-04-27T02:30:16;102270.56;;;-0.53;100.00
71970;BME280;59838;52.152;5.436;2023-04-27T02:32:43;102267.13;;;-0.52;100.00
71970;BME280;59838;52.152;5.436;2023-04-27T02:35:12;102263.69;;;-0.51;100.00
71970;BME280;59838;52.152;5.436;2023-04-27T02:37:38;102258.00;;;-0.57;100.00
71970;BME280;59838;52.152;5.436;2023-04-27T02:40:05;102262.31;;;-0.59;100.00
71970;BME280;59838;52.152;5.436;2023-04-27T02:42:33;102259.84;;;-0.60;100.00
71970;BME280;59838;52.152;5.436;2023-04-27T02:44:59;102256.69;;;-0.65;100.00
71970;BME280;59838;52.152;5.436;2023-04-27T02:47:26;102259.59;;;-0.73;100.00
71970;BME280;59838;52.152;5.436;2023-04-27T02:49:52;102250.25;;;-0.72;100.00
71970;BME280;59838;52.152;5.436;2023-04-27T02:52:19;102250.25;;;-0.72;100.00
71970;BME280;59838;52.152;5.436;2023-04-27T02:54:45;102250.16;;;-0.71;100.00
71970;BME280;59838;52.152;5.436;2023-04-27T02:57:12;102246.63;;;-0.68;100.00
71970;BME280;59838;52.152;5.436;2023-04-27T02:59:38;102246.63;;;-0.68;100.00
71970;BME280;59838;52.152;5.436;2023-04-27T03:02:05;102243.31;;;-0.70;100.00
71970;BME280;59838;52.152;5.436;2023-04-27T03:04:31;102246.84;;;-0.73;100.00
71970;BME280;59838;52.152;5.436;2023-04-27T03:06:58;102257.13;;;-0.75;100.00
71970;BME280;59838;52.152;5.436;2023-04-27T03:09:24;102263.16;;;-0.76;100.00
71970;BME280;59838;52.152;5.436;2023-04-27T03:11:51;102257.22;;;-0.76;100.00
71970;BME280;59838;52.152;5.436;2023-04-27T03:14:18;102259.91;;;-0.79;100.00
71970;BME280;59838;52.152;5.436;2023-04-27T03:16:44;102257.66;;;-0.85;100.00
71970;BME280;59838;52.152;5.436;2023-04-27T03:19:11;102268.00;;;-0.88;100.00
71970;BME280;59838;52.152;5.436;2023-04-27T03:21:38;102270.41;;;-0.85;100.00
71970;BME280;59838;52.152;5.436;2023-04-27T03:24:04;102267.72;;;-0.82;100.00
71970;BME280;59838;52.152;5.436;2023-04-27T03:26:31;102265.16;;;-0.82;100.00
71970;BME280;59838;52.152;5.436;2023-04-27T03:28:57;102266.88;;;-0.83;100.00
71970;BME280;59838;52.152;5.436;2023-04-27T03:31:24;102271.16;;;-0.83;100.00
71970;BME280;59838;52.152;5.436;2023-04-27T03:33:50;102275.50;;;-0.85;100.00
71970;BME280;59838;52.152;5.436;2023-04-27T03:36:17;102266.34;;;-0.89;100.00
71970;BME280;59838;52.152;5.436;2023-04-27T03:38:43;102262.22;;;-0.92;100.00
71970;BME280;59838;52.152;5.436;2023-04-27T03:41:09;102261.53;;;-0.96;100.00
71970;BME280;59838;52.152;5.436;2023-04-27T03:43:36;102255.38;;;-0.92;100.00
71970;BME280;59838;52.152;5.436;2023-04-27T03:46:03;102268.81;;;-0.88;100.00
71970;BME280;59838;52.152;5.436;2023-04-27T03:48:29;102267.94;;;-0.87;100.00
71970;BME280;59838;52.152;5.436;2023-04-27T03:50:56;102267.94;;;-0.87;100.00
71970;BME280;59838;52.152;5.436;2023-04-27T03:53:22;102268.75;;;-0.86;100.00
71970;BME280;59838;52.152;5.436;2023-04-27T03:55:49;102274.66;;;-0.86;100.00
71970;BME280;59838;52.152;5.436;2023-04-27T03:58:15;102270.47;;;-0.87;100.00
71970;BME280;59838;52.152;5.436;2023-04-27T04:00:42;102271.38;;;-0.88;100.00
71970;BME280;59838;52.152;5.436;2023-04-27T04:03:09;102273.19;;;-0.90;100.00
71970;BME280;59838;52.152;5.436;2023-04-27T04:05:36;102263.84;;;-0.91;100.00
71970;BME280;59838;52.152;5.436;2023-04-27T04:08:02;102272.28;;;-0.89;100.00
71970;BME280;59838;52.152;5.436;2023-04-27T04:10:29;102273.91;;;-0.88;100.00
71970;BME280;59838;52.152;5.436;2023-04-27T04:12:55;102276.25;;;-0.83;100.00
71970;BME280;59838;52.152;5.436;2023-04-27T04:15:22;102273.56;;;-0.80;100.00
71970;BME280;59838;52.152;5.436;2023-04-27T04:17:48;102277.84;;;-0.81;100.00
71970;BME280;59838;52.152;5.436;2023-04-27T04:20:15;102270.28;;;-0.82;100.00
71970;BME280;59838;52.152;5.436;2023-04-27T04:22:42;102272.69;;;-0.79;100.00
71970;BME280;59838;52.152;5.436;2023-04-27T04:25:09;102275.16;;;-0.78;100.00
71970;BME280;59838;52.152;5.436;2023-04-27T04:27:35;102286.78;;;-0.72;100.00
71970;BME280;59838;52.152;5.436;2023-04-27T04:30:04;102279.69;;;-0.48;100.00
71970;BME280;59838;52.152;5.436;2023-04-27T04:32:32;102275.84;;;-0.22;100.00
71970;BME280;59838;52.152;5.436;2023-04-27T04:34:59;102287.66;;;0.14;100.00
71970;BME280;59838;52.152;5.436;2023-04-27T04:37:32;102287.34;;;0.54;100.00
71970;BME280;59838;52.152;5.436;2023-04-27T04:39:59;102291.53;;;0.71;100.00
71970;BME280;59838;52.152;5.436;2023-04-27T04:42:26;102285.13;;;0.96;100.00
71970;BME280;59838;52.152;5.436;2023-04-27T04:44:52;102294.59;;;1.09;100.00
71970;BME280;59838;52.152;5.436;2023-04-27T04:47:19;102298.22;;;1.52;100.00
71970;BME280;59838;52.152;5.436;2023-04-27T04:49:45;102300.66;;;1.69;100.00
71970;BME280;59838;52.152;5.436;2023-04-27T04:52:12;102299.06;;;1.67;100.00
71970;BME280;59838;52.152;5.436;2023-04-27T04:54:38;102302.03;;;1.75;100.00
71970;BME280;59838;52.152;5.436;2023-04-27T04:57:05;102295.19;;;1.75;100.00
71970;BME280;59838;52.152;5.436;2023-04-27T04:59:32;102298.63;;;1.74;100.00
71970;BME280;59838;52.152;5.436;2023-04-27T05:02:00;102293.00;;;1.83;100.00
71970;BME280;59838;52.152;5.436;2023-04-27T05:04:26;102291.66;;;2.21;100.00
71970;BME280;59838;52.152;5.436;2023-04-27T05:06:54;102293.16;;;2.52;99.61
71970;BME280;59838;52.152;5.436;2023-04-27T05:09:20;102288.44;;;2.88;98.51
71970;BME280;59838;52.152;5.436;2023-04-27T05:11:47;102287.28;;;3.59;97.02
71970;BME280;59838;52.152;5.436;2023-04-27T05:14:13;102272.88;;;4.71;92.70
71970;BME280;59838;52.152;5.436;2023-04-27T05:16:40;102276.31;;;5.78;87.76
71970;BME280;59838;52.152;5.436;2023-04-27T05:19:06;102278.38;;;7.18;83.51
71970;BME280;59838;52.152;5.436;2023-04-27T05:21:33;102270.19;;;8.48;78.21
71970;BME280;59838;52.152;5.436;2023-04-27T05:24:00;102271.09;;;9.74;71.37
71970;BME280;59838;52.152;5.436;2023-04-27T05:26:26;102261.88;;;10.72;66.47
71970;BME280;59838;52.152;5.436;2023-04-27T05:28:52;102262.31;;;11.30;61.77
71970;BME280;59838;52.152;5.436;2023-04-27T05:31:19;102270.09;;;11.82;59.61
71970;BME280;59838;52.152;5.436;2023-04-27T05:33:45;102271.22;;;12.57;56.42
71970;BME280;59838;52.152;5.436;2023-04-27T05:36:12;102267.69;;;13.15;53.97
71970;BME280;59838;52.152;5.436;2023-04-27T05:38:38;102273.38;;;13.27;52.44
71970;BME280;59838;52.152;5.436;2023-04-27T05:41:05;102273.19;;;13.45;51.65
71970;BME280;59838;52.152;5.436;2023-04-27T05:43:32;102282.50;;;13.56;51.09
71970;BME280;59838;52.152;5.436;2023-04-27T05:46:00;102272.34;;;14.09;49.84
71970;BME280;59838;52.152;5.436;2023-04-27T05:48:27;102278.44;;;14.33;48.78
71970;BME280;59838;52.152;5.436;2023-04-27T05:51:00;102280.53;;;14.06;49.83
71970;BME280;59838;52.152;5.436;2023-04-27T05:53:32;102271.91;;;13.08;50.93
71970;BME280;59838;52.152;5.436;2023-04-27T05:55:59;102277.25;;;12.66;51.73
71970;BME280;59838;52.152;5.436;2023-04-27T05:58:26;102280.84;;;12.73;51.86
71970;BME280;59838;52.152;5.436;2023-04-27T06:00:53;102284.47;;;12.88;51.09
71970;BME280;59838;52.152;5.436;2023-04-27T06:03:19;102272.38;;;12.62;51.67
71970;BME280;59838;52.152;5.436;2023-04-27T06:05:52;102279.25;;;13.38;51.20
71970;BME280;59838;52.152;5.436;2023-04-27T06:08:21;102275.31;;;14.69;47.87
71970;BME280;59838;52.152;5.436;2023-04-27T06:10:49;102270.88;;;15.30;45.94
71970;BME280;59838;52.152;5.436;2023-04-27T06:13:16;102269.25;;;15.74;44.73
71970;BME280;59838;52.152;5.436;2023-04-27T06:15:42;102267.28;;;16.06;43.40
71970;BME280;59838;52.152;5.436;2023-04-27T06:18:09;102267.09;;;16.07;42.79
71970;BME280;59838;52.152;5.436;2023-04-27T06:20:35;102274.91;;;15.86;43.16
71970;BME280;59838;52.152;5.436;2023-04-27T06:23:02;102271.69;;;14.93;44.91
71970;BME280;59838;52.152;5.436;2023-04-27T06:25:30;102274.09;;;14.79;44.94
71970;BME280;59838;52.152;5.436;2023-04-27T06:27:57;102278.19;;;14.74;45.23
71970;BME280;59838;52.152;5.436;2023-04-27T06:30:24;102279.47;;;15.01;45.23
71970;BME280;59838;52.152;5.436;2023-04-27T06:32:50;102275.03;;;15.25;44.30
71970;BME280;59838;52.152;5.436;2023-04-27T06:35:17;102272.38;;;15.78;43.90
71970;BME280;59838;52.152;5.436;2023-04-27T06:37:44;102274.06;;;15.85;43.43
71970;BME280;59838;52.152;5.436;2023-04-27T06:40:11;102278.88;;;15.82;43.32
71970;BME280;59838;52.152;5.436;2023-04-27T06:42:38;102274.41;;;15.67;43.61
71970;BME280;59838;52.152;5.436;2023-04-27T06:45:04;102277.56;;;15.33;44.88
71970;BME280;59838;52.152;5.436;2023-04-27T06:47:32;102274.59;;;15.66;44.22
71970;BME280;59838;52.152;5.436;2023-04-27T06:49:58;102273.03;;;15.42;44.66
71970;BME280;59838;52.152;5.436;2023-04-27T06:52:25;102273.97;;;15.94;44.31
71970;BME280;59838;52.152;5.436;2023-04-27T06:54:52;102275.75;;;16.08;43.84
71970;BME280;59838;52.152;5.436;2023-04-27T06:57:19;102275.22;;;15.53;44.25
71970;BME280;59838;52.152;5.436;2023-04-27T06:59:45;102278.00;;;15.36;45.42
71970;BME280;59838;52.152;5.436;2023-04-27T07:02:12;102276.44;;;15.80;45.64
71970;BME280;59838;52.152;5.436;2023-04-27T07:04:38;102273.03;;;15.42;44.28
71970;BME280;59838;52.152;5.436;2023-04-27T07:07:05;102279.28;;;14.65;44.68
71970;BME280;59838;52.152;5.436;2023-04-27T07:09:32;102275.59;;;14.97;44.41
71970;BME280;59838;52.152;5.436;2023-04-27T07:11:59;102279.47;;;15.24;45.41
71970;BME280;59838;52.152;5.436;2023-04-27T07:14:26;102272.63;;;15.98;43.56
71970;BME280;59838;52.152;5.436;2023-04-27T07:16:54;102276.19;;;16.48;41.87
71970;BME280;59838;52.152;5.436;2023-04-27T07:19:21;102273.19;;;16.73;40.91
71970;BME280;59838;52.152;5.436;2023-04-27T07:21:48;102287.38;;;15.99;41.75
71970;BME280;59838;52.152;5.436;2023-04-27T07:24:15;102285.72;;;16.49;40.38
71970;BME280;59838;52.152;5.436;2023-04-27T07:26:41;102282.50;;;16.32;40.18
71970;BME280;59838;52.152;5.436;2023-04-27T07:29:08;102285.41;;;16.22;42.41
71970;BME280;59838;52.152;5.436;2023-04-27T07:31:52;102292.06;;;16.61;41.74
71970;BME280;59838;52.152;5.436;2023-04-27T07:34:18;102284.50;;;17.16;39.92
71970;BME280;59838;52.152;5.436;2023-04-27T07:36:45;102284.06;;;16.48;39.27
71970;BME280;59838;52.152;5.436;2023-04-27T07:39:12;102279.47;;;15.39;41.11
71970;BME280;59838;52.152;5.436;2023-04-27T07:41:38;102279.06;;;15.27;42.66
71970;BME280;59838;52.152;5.436;2023-04-27T07:44:05;102279.81;;;16.47;42.48
71970;BME280;59838;52.152;5.436;2023-04-27T07:46:31;102265.25;;;17.09;40.42
71970;BME280;59838;52.152;5.436;2023-04-27T07:48:58;102265.44;;;17.08;39.81
71970;BME280;59838;52.152;5.436;2023-04-27T07:51:25;102261.97;;;17.29;39.98
71970;BME280;59838;52.152;5.436;2023-04-27T07:53:54;102270.81;;;16.35;39.63
71970;BME280;59838;52.152;5.436;2023-04-27T07:56:20;102277.13;;;16.40;41.34
71970;BME280;59838;52.152;5.436;2023-04-27T07:58:47;102276.13;;;16.41;41.54
71970;BME280;59838;52.152;5.436;2023-04-27T08:01:13;102278.88;;;16.33;42.13
71970;BME280;59838;52.152;5.436;2023-04-27T08:03:40;102274.31;;;15.46;41.75
71970;BME280;59838;52.152;5.436;2023-04-27T08:06:07;102281.38;;;14.69;43.04
71970;BME280;59838;52.152;5.436;2023-04-27T08:08:34;102279.78;;;14.29;42.25
71970;BME280;59838;52.152;5.436;2023-04-27T08:11:00;102278.94;;;13.32;43.90
71970;BME280;59838;52.152;5.436;2023-04-27T08:13:27;102276.31;;;13.08;45.12
71970;BME280;59838;52.152;5.436;2023-04-27T08:15:53;102277.13;;;12.92;46.55
71970;BME280;59838;52.152;5.436;2023-04-27T08:18:25;102276.97;;;13.02;46.74
71970;BME280;59838;52.152;5.436;2023-04-27T08:20:51;102282.50;;;13.48;48.36
71970;BME280;59838;52.152;5.436;2023-04-27T08:23:18;102283.09;;;13.75;46.54
71970;BME280;59838;52.152;5.436;2023-04-27T08:25:44;102273.22;;;13.37;44.17
71970;BME280;59838;52.152;5.436;2023-04-27T08:28:12;102278.22;;;12.65;44.97
71970;BME280;59838;52.152;5.436;2023-04-27T08:30:41;102279.84;;;12.49;47.07
71970;BME280;59838;52.152;5.436;2023-04-27T08:33:07;102284.03;;;12.42;46.71
71970;BME280;59838;52.152;5.436;2023-04-27T08:35:34;102286.53;;;12.01;45.34
71970;BME280;59838;52.152;5.436;2023-04-27T08:38:00;102285.72;;;11.82;49.00
71970;BME280;59838;52.152;5.436;2023-04-27T08:40:27;102278.56;;;11.76;49.15
71970;BME280;59838;52.152;5.436;2023-04-27T08:42:58;102275.66;;;11.79;47.17
71970;BME280;59838;52.152;5.436;2023-04-27T08:45:26;102275.47;;;12.07;48.96
71970;BME280;59838;52.152;5.436;2023-04-27T08:47:53;102279.25;;;11.86;46.53
71970;BME280;59838;52.152;5.436;2023-04-27T08:50:21;102270.84;;;11.66;45.01
71970;BME280;59838;52.152;5.436;2023-04-27T08:52:49;102266.16;;;11.70;47.46
71970;BME280;59838;52.152;5.436;2023-04-27T08:55:17;102266.03;;;11.80;45.88
71970;BME280;59838;52.152;5.436;2023-04-27T08:57:54;102270.28;;;11.81;46.37
71970;BME280;59838;52.152;5.436;2023-04-27T09:00:23;102274.41;;;11.92;46.96
71970;BME280;59838;52.152;5.436;2023-04-27T09:02:50;102272.94;;;11.63;48.59
71970;BME280;59838;52.152;5.436;2023-04-27T09:05:17;102276.38;;;11.63;48.85
71970;BME280;59838;52.152;5.436;2023-04-27T09:07:58;102285.03;;;11.98;50.38
71970;BME280;59838;52.152;5.436;2023-04-27T09:10:25;102273.31;;;11.94;46.02
71970;BME280;59838;52.152;5.436;2023-04-27T09:12:55;102275.13;;;12.02;47.54
71970;BME280;59838;52.152;5.436;2023-04-27T09:15:22;102276.66;;;12.21;47.77
71970;BME280;59838;52.152;5.436;2023-04-27T09:17:53;102264.06;;;12.59;46.38
71970;BME280;59838;52.152;5.436;2023-04-27T09:20:21;102269.91;;;12.53;46.23
71970;BME280;59838;52.152;5.436;2023-04-27T09:22:51;102264.31;;;12.31;45.38
71970;BME280;59838;52.152;5.436;2023-04-27T09:25:26;102254.47;;;11.82;46.13
71970;BME280;59838;52.152;5.436;2023-04-27T09:27:54;102265.72;;;12.09;46.26
71970;BME280;59838;52.152;5.436;2023-04-27T09:30:21;102259.00;;;12.49;45.84
71970;BME280;59838;52.152;5.436;2023-04-27T09:32:55;102257.69;;;12.53;45.80
71970;BME280;59838;52.152;5.436;2023-04-27T09:35:25;102253.47;;;13.10;47.68
71970;BME280;59838;52.152;5.436;2023-04-27T09:37:53;102249.06;;;13.43;46.35
71970;BME280;59838;52.152;5.436;2023-04-27T09:40:21;102242.66;;;13.62;45.00
71970;BME280;59838;52.152;5.436;2023-04-27T09:42:54;102250.44;;;13.79;45.67
71970;BME280;59838;52.152;5.436;2023-04-27T09:45:23;102245.25;;;13.70;42.63
71970;BME280;59838;52.152;5.436;2023-04-27T09:47:50;102249.53;;;13.30;44.21
71970;BME280;59838;52.152;5.436;2023-04-27T09:50:16;102255.09;;;13.27;45.22
71970;BME280;59838;52.152;5.436;2023-04-27T09:52:45;102249.88;;;13.27;43.43
71970;BME280;59838;52.152;5.436;2023-04-27T09:55:15;102254.81;;;12.97;44.52
71970;BME280;59838;52.152;5.436;2023-04-27T09:58:13;102251.69;;;12.94;44.28
71970;BME280;59838;52.152;5.436;2023-04-27T10:08:44;102244.38;;;12.97;43.38
71970;BME280;59838;52.152;5.436;2023-04-27T10:11:17;102230.34;;;12.74;45.50
71970;BME280;59838;52.152;5.436;2023-04-27T10:13:52;102246.28;;;12.62;45.47
71970;BME280;59838;52.152;5.436;2023-04-27T10:16:20;102234.53;;;12.58;47.12
71970;BME280;59838;52.152;5.436;2023-04-27T10:18:54;102250.56;;;12.72;45.51
71970;BME280;59838;52.152;5.436;2023-04-27T10:21:21;102242.66;;;12.31;45.77
71970;BME280;59838;52.152;5.436;2023-04-27T10:23:50;102241.69;;;12.40;45.18
71970;BME280;59838;52.152;5.436;2023-04-27T10:26:27;102246.94;;;12.73;45.03
71970;BME280;59838;52.152;5.436;2023-04-27T10:29:07;102248.22;;;13.26;45.69
71970;BME280;59838;52.152;5.436;2023-04-27T10:31:34;102238.31;;;13.30;45.49
71970;BME280;59838;52.152;5.436;2023-04-27T10:34:08;102240.09;;;13.38;41.52
71970;BME280;59838;52.152;5.436;2023-04-27T10:36:38;102233.75;;;13.07;43.09
71970;BME280;59838;52.152;5.436;2023-04-27T10:39:14;102229.97;;;13.34;43.61
71970;BME280;59838;52.152;5.436;2023-04-27T10:41:53;102232.13;;;13.06;43.20
71970;BME280;59838;52.152;5.436;2023-04-27T10:44:24;102231.16;;;13.07;43.06
71970;BME280;59838;52.152;5.436;2023-04-27T10:46:55;102237.19;;;13.08;41.59
71970;BME280;59838;52.152;5.436;2023-04-27T10:49:22;102235.69;;;13.30;43.36
71970;BME280;59838;52.152;5.436;2023-04-27T10:51:50;102235.19;;;13.34;42.82
71970;BME280;59838;52.152;5.436;2023-04-27T10:54:16;102228.69;;;13.14;43.28
71970;BME280;59838;52.152;5.436;2023-04-27T10:56:43;102233.31;;;13.68;44.06
71970;BME280;59838;52.152;5.436;2023-04-27T10:59:10;102234.25;;;13.83;43.12
71970;BME280;59838;52.152;5.436;2023-04-27T11:01:38;102229.44;;;13.56;43.44
71970;BME280;59838;52.152;5.436;2023-04-27T11:04:05;102228.03;;;13.28;40.87
71970;BME280;59838;52.152;5.436;2023-04-27T11:06:41;102223.78;;;13.27;42.14
71970;BME280;59838;52.152;5.436;2023-04-27T11:09:08;102221.50;;;13.41;44.18
71970;BME280;59838;52.152;5.436;2023-04-27T11:11:36;102214.16;;;13.20;42.68
71970;BME280;59838;52.152;5.436;2023-04-27T11:14:02;102207.66;;;13.15;45.81
71970;BME280;59838;52.152;5.436;2023-04-27T11:16:32;102203.38;;;13.31;43.53
71970;BME280;59838;52.152;5.436;2023-04-27T11:19:04;102200.00;;;13.70;43.76
71970;BME280;59838;52.152;5.436;2023-04-27T11:21:32;102197.84;;;14.13;43.32
71970;BME280;59838;52.152;5.436;2023-04-27T11:24:05;102192.72;;;13.97;42.10
71970;BME280;59838;52.152;5.436;2023-04-27T11:26:32;102193.31;;;13.76;44.30
71970;BME280;59838;52.152;5.436;2023-04-27T11:29:00;102185.78;;;13.41;46.69
71970;BME280;59838;52.152;5.436;2023-04-27T11:31:37;102187.41;;;13.34;46.11
71970;BME280;59838;52.152;5.436;2023-04-27T11:34:06;102186.28;;;13.37;45.98
71970;BME280;59838;52.152;5.436;2023-04-27T11:36:36;102175.38;;;13.73;45.11
71970;BME280;59838;52.152;5.436;2023-04-27T11:39:03;102188.13;;;13.67;40.97
71970;BME280;59838;52.152;5.436;2023-04-27T11:41:33;102187.88;;;13.38;43.34
71970;BME280;59838;52.152;5.436;2023-04-27T11:44:04;102184.63;;;13.35;43.95
71970;BME280;59838;52.152;5.436;2023-04-27T11:46:32;102182.03;;;13.35;41.96
71970;BME280;59838;52.152;5.436;2023-04-27T11:49:03;102183.63;;;13.45;41.33
71970;BME280;59838;52.152;5.436;2023-04-27T11:51:31;102183.88;;;13.66;44.35
71970;BME280;59838;52.152;5.436;2023-04-27T11:54:05;102176.63;;;13.29;42.16
71970;BME280;59838;52.152;5.436;2023-04-27T11:56:37;102176.81;;;13.35;41.43
71970;BME280;59838;52.152;5.436;2023-04-27T11:59:04;102167.78;;;13.55;41.38
71970;BME280;59838;52.152;5.436;2023-04-27T12:01:32;102166.53;;;14.05;44.12
71970;BME280;59838;52.152;5.436;2023-04-27T12:04:03;102165.81;;;13.88;42.53
71970;BME280;59838;52.152;5.436;2023-04-27T12:06:30;102166.47;;;13.90;44.33
71970;BME280;59838;52.152;5.436;2023-04-27T12:08:59;102162.44;;;14.34;44.53
71970;BME280;59838;52.152;5.436;2023-04-27T12:11:26;102161.56;;;14.65;43.92
71970;BME280;59838;52.152;5.436;2023-04-27T12:13:54;102151.16;;;15.09;40.09
71970;BME280;59838;52.152;5.436;2023-04-27T12:16:20;102163.19;;;14.42;40.39
71970;BME280;59838;52.152;5.436;2023-04-27T12:18:49;102167.63;;;14.11;39.13
71970;BME280;59838;52.152;5.436;2023-04-27T12:21:16;102156.50;;;14.17;41.70
71970;BME280;59838;52.152;5.436;2023-04-27T12:23:42;102163.56;;;14.54;39.39
71970;BME280;59838;52.152;5.436;2023-04-27T12:26:10;102158.25;;;14.71;40.96
71970;BME280;59838;52.152;5.436;2023-04-27T12:28:40;102160.09;;;14.39;43.60
71970;BME280;59838;52.152;5.436;2023-04-27T12:31:06;102146.63;;;14.50;40.16
71970;BME280;59838;52.152;5.436;2023-04-27T12:33:33;102144.97;;;14.72;42.27
71970;BME280;59838;52.152;5.436;2023-04-27T12:36:00;102148.22;;;14.59;43.58
71970;BME280;59838;52.152;5.436;2023-04-27T12:38:26;102134.88;;;14.46;41.62
71970;BME280;59838;52.152;5.436;2023-04-27T12:40:53;102130.13;;;14.50;40.92
71970;BME280;59838;52.152;5.436;2023-04-27T12:43:19;102127.13;;;14.15;43.07
71970;BME280;59838;52.152;5.436;2023-04-27T12:45:46;102127.06;;;14.00;44.41
71970;BME280;59838;52.152;5.436;2023-04-27T12:48:12;102130.47;;;13.77;41.64
71970;BME280;59838;52.152;5.436;2023-04-27T12:50:42;102140.19;;;13.92;48.82
71970;BME280;59838;52.152;5.436;2023-04-27T12:53:09;102135.34;;;14.03;40.63
71970;BME280;59838;52.152;5.436;2023-04-27T12:55:36;102131.06;;;14.11;42.43
71970;BME280;59838;52.152;5.436;2023-04-27T12:58:02;102140.41;;;14.74;40.87